Aviation Digital Data Service (ADDS)

Output produced by METARs form (1007 UTC 18 January 2017)
found at http://aviationweather.gov/adds/metars/
 
KHPN 180832Z 1809/1906 07007KT 1 1/2SM -RA BR OVC003 
     FM181500 35006KT 2SM BR BKN005 OVC010 
     FM181800 34007KT 4SM BR BKN008 OVC015 
     FM182200 VRB04KT 6SM BR BKN015 OVC025 AMD NOT SKED